createdAt,value
2018-08-03T00:00:00.263Z,5.07
2018-08-03T00:02:32.031Z,5.50
2018-08-03T00:05:01.685Z,6.17
2018-08-03T00:07:32.573Z,5.07
2018-08-03T00:10:02.102Z,5.53
2018-08-03T00:12:31.488Z,5.60
2018-08-03T00:15:02.453Z,5.30
2018-08-03T00:17:32.008Z,5.47
2018-08-03T00:20:00.703Z,5.50
2018-08-03T00:22:29.641Z,5.90
2018-08-03T00:24:58.234Z,5.50
2018-08-03T00:27:27.651Z,5.30
2018-08-03T00:29:56.135Z,5.80
2018-08-03T00:32:24.747Z,5.70
2018-08-03T00:34:53.204Z,5.97
2018-08-03T00:37:21.620Z,5.97
2018-08-03T00:39:50.322Z,5.83
2018-08-03T00:42:18.689Z,5.53
2018-08-03T00:44:47.187Z,5.50
2018-08-03T00:47:15.586Z,6.50
2018-08-03T00:49:44.141Z,6.13
2018-08-03T00:52:12.557Z,6.00
2018-08-03T00:54:40.990Z,6.50
2018-08-03T00:57:09.375Z,6.03
2018-08-03T00:59:37.760Z,6.00
2018-08-03T01:02:06.184Z,6.17
2018-08-03T01:04:34.568Z,6.60
2018-08-03T01:07:03.001Z,6.03
2018-08-03T01:09:31.376Z,6.00
2018-08-03T01:11:59.435Z,6.40
2018-08-03T01:14:27.833Z,6.63
2018-08-03T01:16:56.487Z,6.30
2018-08-03T01:19:24.989Z,6.30
2018-08-03T01:21:53.377Z,6.33
2018-08-03T01:24:21.729Z,6.30
2018-08-03T01:26:50.107Z,6.40
2018-08-03T01:29:18.188Z,6.00
2018-08-03T01:31:46.659Z,6.90
2018-08-03T01:34:15.052Z,6.50
2018-08-03T01:36:43.572Z,6.40
2018-08-03T01:39:11.964Z,5.70
2018-08-03T01:41:40.301Z,6.07
2018-08-03T01:44:08.741Z,6.00
2018-08-03T01:46:37.357Z,6.03
2018-08-03T01:49:05.551Z,6.07
2018-08-03T01:51:33.907Z,6.10
2018-08-03T01:54:02.467Z,6.47
2018-08-03T01:56:30.817Z,6.03
2018-08-03T01:58:59.493Z,6.50
2018-08-03T02:01:27.885Z,6.47
2018-08-03T02:03:56.298Z,6.83
2018-08-03T02:06:26.896Z,6.03
2018-08-03T02:08:56.029Z,6.80
2018-08-03T02:11:24.382Z,6.67
2018-08-03T02:13:52.918Z,6.47
2018-08-03T02:16:21.336Z,6.67
2018-08-03T02:18:49.717Z,6.50
2018-08-03T02:21:18.206Z,6.43
2018-08-03T02:23:46.564Z,6.80
2018-08-03T02:26:15.041Z,6.50
2018-08-03T02:28:43.408Z,6.40
2018-08-03T02:31:11.928Z,6.70
2018-08-03T02:33:40.268Z,6.30
2018-08-03T02:36:08.700Z,6.40
2018-08-03T02:38:37.303Z,6.80
2018-08-03T02:41:05.786Z,6.27
2018-08-03T02:43:34.165Z,6.87
2018-08-03T02:46:02.596Z,7.00
2018-08-03T02:48:31.068Z,7.03
2018-08-03T02:50:59.615Z,6.20
2018-08-03T02:53:28.057Z,6.40
2018-08-03T02:55:56.568Z,6.70
2018-08-03T02:58:24.956Z,6.57
2018-08-03T03:00:53.368Z,6.57
2018-08-03T03:03:21.703Z,6.37
2018-08-03T03:05:50.184Z,6.10
2018-08-03T03:08:18.582Z,6.70
2018-08-03T03:10:46.941Z,6.83
2018-08-03T03:13:15.391Z,7.17
2018-08-03T03:15:43.834Z,5.87
2018-08-03T03:18:12.189Z,6.30
2018-08-03T03:20:40.556Z,6.03
2018-08-03T03:23:09.035Z,6.90
2018-08-03T03:25:37.666Z,6.77
2018-08-03T03:28:06.060Z,6.60
2018-08-03T03:30:34.442Z,6.57
2018-08-03T03:33:03.037Z,8.50
2018-08-03T03:35:31.527Z,6.50
2018-08-03T03:38:00.000Z,6.33
2018-08-03T03:40:28.508Z,6.10
2018-08-03T03:42:57.058Z,5.93
2018-08-03T03:45:25.628Z,6.50
2018-08-03T03:47:54.066Z,7.10
2018-08-03T03:50:22.480Z,6.97
2018-08-03T03:52:50.964Z,6.00
2018-08-03T03:55:19.409Z,6.10
2018-08-03T03:57:47.833Z,6.63
2018-08-03T04:00:15.907Z,5.87
2018-08-03T04:02:44.340Z,6.00
2018-08-03T04:05:12.914Z,6.27
2018-08-03T04:07:41.861Z,6.90
2018-08-03T04:10:10.360Z,6.70
2018-08-03T04:12:38.764Z,6.27
2018-08-03T04:15:07.524Z,6.80
2018-08-03T04:17:35.944Z,6.10
2018-08-03T04:20:04.620Z,6.77
2018-08-03T04:22:33.017Z,6.70
2018-08-03T04:25:01.593Z,6.60
2018-08-03T04:27:30.028Z,6.20
2018-08-03T04:29:58.458Z,7.30
2018-08-03T04:32:26.802Z,6.37
2018-08-03T04:34:55.252Z,6.17
2018-08-03T04:37:23.672Z,6.17
2018-08-03T04:39:52.123Z,5.73
2018-08-03T04:42:20.627Z,6.50
2018-08-03T04:44:49.790Z,7.40
2018-08-03T04:47:18.148Z,6.37
2018-08-03T04:49:46.570Z,5.70
2018-08-03T04:52:14.993Z,6.10
2018-08-03T04:54:43.397Z,7.00
2018-08-03T04:57:11.808Z,6.63
2018-08-03T04:59:40.228Z,6.30
2018-08-03T05:02:09.684Z,5.93
2018-08-03T05:04:38.188Z,7.03
2018-08-03T05:07:06.564Z,7.47
2018-08-03T05:09:34.977Z,7.00
2018-08-03T05:12:03.464Z,6.33
2018-08-03T05:14:31.902Z,6.70
2018-08-03T05:17:00.579Z,6.93
2018-08-03T05:19:29.096Z,6.40
2018-08-03T05:21:57.629Z,6.50
2018-08-03T05:24:25.697Z,7.03
2018-08-03T05:26:54.100Z,6.40
2018-08-03T05:29:22.636Z,6.30
2018-08-03T05:31:51.013Z,6.43
2018-08-03T05:34:19.393Z,7.43
2018-08-03T05:36:47.805Z,6.43
2018-08-03T05:39:16.198Z,8.03
2018-08-03T05:41:44.572Z,7.90
2018-08-03T05:44:12.980Z,6.90
2018-08-03T05:46:41.490Z,7.63
2018-08-03T05:49:09.854Z,6.50
2018-08-03T05:51:38.278Z,6.80
2018-08-03T05:54:06.833Z,6.90
2018-08-03T05:56:35.263Z,7.00
2018-08-03T05:59:03.643Z,6.93
2018-08-03T06:01:32.028Z,6.47
2018-08-03T06:04:00.536Z,7.60
2018-08-03T06:06:29.024Z,7.00
2018-08-03T06:08:57.709Z,7.67
2018-08-03T06:11:26.151Z,5.93
2018-08-03T06:13:54.554Z,6.37
2018-08-03T06:16:22.956Z,6.77
2018-08-03T06:18:51.382Z,7.13
2018-08-03T06:21:19.826Z,6.63
2018-08-03T06:23:48.308Z,6.47
2018-08-03T06:26:17.305Z,6.37
2018-08-03T06:28:45.746Z,6.37
2018-08-03T06:31:14.837Z,6.90
2018-08-03T06:33:44.136Z,6.40
2018-08-03T06:36:12.784Z,6.13
2018-08-03T06:38:41.168Z,6.60
2018-08-03T06:41:09.742Z,6.33
2018-08-03T06:43:38.362Z,6.60
2018-08-03T06:46:06.841Z,6.73
2018-08-03T06:48:35.232Z,7.57
2018-08-03T06:51:03.395Z,9.07
2018-08-03T06:53:31.769Z,7.13
2018-08-03T06:56:00.252Z,8.53
2018-08-03T06:58:28.867Z,8.13
2018-08-03T07:00:58.269Z,8.20
2018-08-03T07:03:26.773Z,7.80
2018-08-03T07:05:55.228Z,7.47
2018-08-03T07:08:23.624Z,7.30
2018-08-03T07:10:52.043Z,7.93
2018-08-03T07:13:20.448Z,8.50
2018-08-03T07:15:48.817Z,7.90
2018-08-03T07:18:17.229Z,7.53
2018-08-03T07:20:45.828Z,8.33
2018-08-03T07:23:14.209Z,7.13
2018-08-03T07:25:42.726Z,7.00
2018-08-03T07:28:11.202Z,7.30
2018-08-03T07:30:39.662Z,7.53
2018-08-03T07:33:08.075Z,7.20
2018-08-03T07:35:36.576Z,6.80
2018-08-03T07:38:04.984Z,6.77
2018-08-03T07:40:33.486Z,7.73
2018-08-03T07:43:02.019Z,7.90
2018-08-03T07:45:30.540Z,7.40
2018-08-03T07:47:59.088Z,7.53
2018-08-03T07:50:27.543Z,7.40
2018-08-03T07:52:55.954Z,7.57
2018-08-03T07:55:24.024Z,7.60
2018-08-03T07:57:52.391Z,7.50
2018-08-03T08:00:20.808Z,7.70
2018-08-03T08:02:49.274Z,8.40
2018-08-03T08:05:17.835Z,8.20
2018-08-03T08:07:46.892Z,7.30
2018-08-03T08:10:17.156Z,8.20
2018-08-03T08:12:45.559Z,8.60
2018-08-03T08:15:14.024Z,7.53
2018-08-03T08:17:43.241Z,8.17
2018-08-03T08:20:12.440Z,7.73
2018-08-03T08:22:40.880Z,8.00
2018-08-03T08:25:09.356Z,7.43
2018-08-03T08:27:37.803Z,7.60
2018-08-03T08:30:06.727Z,8.03
2018-08-03T08:32:35.133Z,7.10
2018-08-03T08:35:03.536Z,7.10
2018-08-03T08:37:32.032Z,7.00
2018-08-03T08:40:00.440Z,7.57
2018-08-03T08:42:29.006Z,7.80
2018-08-03T08:44:57.718Z,7.20
2018-08-03T08:47:26.148Z,6.90
2018-08-03T08:49:54.615Z,7.90
2018-08-03T08:52:23.352Z,8.07
2018-08-03T08:54:51.844Z,7.90
2018-08-03T08:57:20.492Z,7.50
2018-08-03T08:59:49.104Z,7.07
2018-08-03T09:02:17.486Z,7.80
2018-08-03T09:04:45.886Z,7.83
2018-08-03T09:07:14.247Z,7.80
2018-08-03T09:09:42.629Z,7.37
2018-08-03T09:12:10.980Z,6.83
2018-08-03T09:14:39.421Z,6.73
2018-08-03T09:17:08.806Z,7.70
2018-08-03T09:19:37.265Z,7.90
2018-08-03T09:22:05.892Z,6.50
2018-08-03T09:24:34.346Z,7.60
2018-08-03T09:27:02.726Z,6.90
2018-08-03T09:29:31.126Z,7.20
2018-08-03T09:31:59.600Z,8.03
2018-08-03T09:34:28.917Z,7.40
2018-08-03T09:36:57.338Z,7.00
2018-08-03T09:39:26.118Z,7.47
2018-08-03T09:41:54.673Z,7.10
2018-08-03T09:44:23.057Z,7.23
2018-08-03T09:46:51.488Z,7.00
2018-08-03T09:49:20.070Z,7.20
2018-08-03T09:51:48.414Z,7.80
2018-08-03T09:54:16.788Z,7.27
2018-08-03T09:56:45.219Z,6.80
2018-08-03T09:59:13.836Z,6.80
2018-08-03T10:01:42.370Z,6.37
2018-08-03T10:04:10.796Z,7.20
2018-08-03T10:06:39.252Z,7.13
2018-08-03T10:09:08.583Z,6.77
2018-08-03T10:11:36.970Z,6.80
2018-08-03T10:14:05.382Z,6.83
2018-08-03T10:16:33.798Z,7.70
2018-08-03T10:19:02.185Z,6.77
2018-08-03T10:21:30.784Z,7.17
2018-08-03T10:23:59.204Z,6.70
2018-08-03T10:26:27.901Z,7.07
2018-08-03T10:28:56.318Z,6.90
2018-08-03T10:31:24.759Z,6.70
2018-08-03T10:33:53.151Z,6.70
2018-08-03T10:36:21.230Z,8.70
2018-08-03T10:38:49.635Z,6.70
2018-08-03T10:41:18.254Z,7.00
2018-08-03T10:43:46.649Z,6.80
2018-08-03T10:46:15.054Z,7.03
2018-08-03T10:48:43.549Z,7.07
2018-08-03T10:51:11.956Z,6.83
2018-08-03T10:53:40.372Z,7.53
2018-08-03T10:56:08.796Z,7.10
2018-08-03T10:58:36.879Z,7.43
2018-08-03T11:01:05.324Z,7.03
2018-08-03T11:03:33.719Z,7.40
2018-08-03T11:06:02.332Z,6.07
2018-08-03T11:08:30.742Z,6.37
2018-08-03T11:10:59.192Z,6.73
2018-08-03T11:13:27.678Z,6.47
2018-08-03T11:15:56.074Z,7.77
2018-08-03T11:18:24.561Z,6.40
2018-08-03T11:20:53.214Z,6.50
2018-08-03T11:23:22.280Z,6.60
2018-08-03T11:25:51.181Z,6.60
2018-08-03T11:28:20.011Z,6.13
2018-08-03T11:30:48.472Z,7.30
2018-08-03T11:33:16.953Z,6.87
2018-08-03T11:35:45.398Z,6.27
2018-08-03T11:38:14.637Z,6.70
2018-08-03T11:40:43.043Z,6.00
2018-08-03T11:43:11.563Z,6.00
2018-08-03T11:45:40.103Z,6.97
2018-08-03T11:48:08.568Z,6.70
2018-08-03T11:50:36.973Z,6.43
2018-08-03T11:53:05.392Z,6.50
2018-08-03T11:55:34.537Z,6.23
2018-08-03T11:58:06.173Z,6.00
2018-08-03T12:00:35.604Z,6.03
2018-08-03T12:03:04.574Z,6.03
2018-08-03T12:05:33.606Z,6.13
2018-08-03T12:08:02.858Z,5.77
2018-08-03T12:10:32.066Z,5.47
2018-08-03T12:13:02.140Z,5.77
2018-08-03T12:15:31.392Z,5.67
2018-08-03T12:18:00.793Z,5.30
2018-08-03T12:20:31.199Z,5.83
2018-08-03T12:23:00.112Z,5.37
2018-08-03T12:25:29.055Z,5.60
2018-08-03T12:27:58.246Z,6.40
2018-08-03T12:30:30.730Z,5.60
2018-08-03T12:32:59.450Z,4.90
2018-08-03T12:35:28.225Z,4.90
2018-08-03T12:37:56.943Z,6.20
2018-08-03T12:40:25.383Z,5.60
2018-08-03T12:42:53.816Z,5.50
2018-08-03T12:45:22.205Z,5.67
2018-08-03T12:47:50.578Z,4.80
2018-08-03T12:50:19.478Z,6.33
2018-08-03T12:52:47.928Z,6.13
2018-08-03T12:55:16.257Z,5.27
2018-08-03T12:57:44.752Z,5.97
2018-08-03T13:00:13.207Z,5.53
2018-08-03T13:02:41.661Z,5.50
2018-08-03T13:05:10.804Z,6.27
2018-08-03T13:07:39.345Z,5.80
2018-08-03T13:10:07.632Z,5.67
2018-08-03T13:12:36.753Z,5.23
2018-08-03T13:15:05.845Z,5.73
2018-08-03T13:17:34.256Z,5.53
2018-08-03T13:20:02.670Z,5.43
2018-08-03T13:22:31.177Z,5.93
2018-08-03T13:24:59.642Z,6.40
2018-08-03T13:27:28.022Z,6.07
2018-08-03T13:29:56.448Z,5.57
2018-08-03T13:32:24.865Z,5.60
2018-08-03T13:34:53.330Z,5.57
2018-08-03T13:37:21.805Z,6.03
2018-08-03T13:39:50.255Z,6.73
2018-08-03T13:42:18.640Z,6.17
2018-08-03T13:44:47.062Z,6.30
2018-08-03T13:47:15.572Z,6.10
2018-08-03T13:49:44.180Z,5.50
2018-08-03T13:52:12.569Z,5.80
2018-08-03T13:54:41.010Z,5.63
2018-08-03T13:57:09.407Z,5.97
2018-08-03T13:59:38.116Z,5.50
2018-08-03T14:02:20.704Z,5.60
2018-08-03T14:04:49.072Z,6.00
2018-08-03T14:07:18.608Z,5.90
2018-08-03T14:09:47.000Z,5.30
2018-08-03T14:12:15.480Z,5.57
2018-08-03T14:14:43.812Z,5.67
2018-08-03T14:17:12.312Z,5.83
2018-08-03T14:19:41.476Z,5.90
2018-08-03T14:22:10.001Z,5.80
2018-08-03T14:24:38.412Z,5.90
2018-08-03T14:27:07.116Z,6.20
2018-08-03T14:29:35.512Z,5.73
2018-08-03T14:32:04.861Z,6.23
2018-08-03T14:34:35.369Z,6.30
2018-08-03T14:37:04.152Z,5.67
2018-08-03T14:39:32.650Z,6.00
2018-08-03T14:42:19.135Z,5.90
2018-08-03T14:44:49.315Z,6.23
2018-08-03T14:47:17.732Z,5.97
2018-08-03T14:49:46.425Z,6.27
2018-08-03T14:52:15.004Z,6.60
2018-08-03T14:54:43.474Z,6.80
2018-08-03T14:57:12.033Z,5.70
2018-08-03T14:59:41.323Z,6.60
2018-08-03T15:02:09.782Z,5.63
2018-08-03T15:04:38.212Z,5.80
2018-08-03T15:07:06.655Z,6.13
2018-08-03T15:09:35.047Z,5.97
2018-08-03T15:12:03.954Z,6.13
2018-08-03T15:14:32.354Z,6.07
2018-08-03T15:17:00.799Z,5.90
2018-08-03T15:19:29.272Z,6.33
2018-08-03T15:21:57.652Z,6.20
2018-08-03T15:28:14.391Z,5.97
2018-08-03T15:30:42.748Z,5.70
2018-08-03T15:33:11.076Z,5.80
2018-08-03T15:35:39.556Z,6.57
2018-08-03T15:38:08.025Z,6.17
2018-08-03T15:40:36.420Z,5.70
2018-08-03T15:43:04.850Z,5.90
2018-08-03T15:45:33.358Z,5.83
2018-08-03T15:48:01.972Z,6.03
2018-08-03T15:50:30.389Z,5.97
2018-08-03T15:52:59.184Z,5.70
2018-08-03T15:55:27.593Z,6.00
2018-08-03T15:57:56.001Z,5.40
2018-08-03T16:00:24.432Z,6.43
2018-08-03T16:02:52.834Z,5.50
2018-08-03T16:05:21.200Z,5.70
2018-08-03T16:07:49.548Z,6.43
2018-08-03T16:10:17.934Z,5.00
2018-08-03T16:12:46.365Z,5.60
2018-08-03T16:15:14.752Z,5.13
2018-08-03T16:17:43.113Z,5.83
2018-08-03T16:20:11.496Z,5.20
2018-08-03T16:22:40.027Z,6.23
2018-08-03T16:25:08.447Z,5.53
2018-08-03T16:27:36.800Z,5.33
2018-08-03T16:30:06.832Z,5.50
2018-08-03T16:32:35.367Z,5.33
2018-08-03T16:35:04.111Z,5.80
2018-08-03T16:37:32.701Z,6.20
2018-08-03T16:40:01.272Z,5.80
2018-08-03T16:42:29.800Z,5.70
2018-08-03T16:44:58.447Z,5.50
2018-08-03T16:47:26.914Z,5.83
2018-08-03T16:49:55.298Z,5.30
2018-08-03T16:52:23.728Z,5.10
2018-08-03T16:54:52.209Z,5.80
2018-08-03T16:57:20.689Z,5.30
2018-08-03T16:59:49.076Z,5.27
2018-08-03T17:02:17.447Z,5.47
2018-08-03T17:04:45.907Z,5.60
2018-08-03T17:07:14.284Z,5.27
2018-08-03T17:09:42.688Z,5.60
2018-08-03T17:12:11.068Z,5.27
2018-08-03T17:14:39.536Z,5.23
2018-08-03T17:17:08.014Z,4.80
2018-08-03T17:19:36.402Z,5.73
2018-08-03T17:22:04.866Z,5.40
2018-08-03T17:24:33.362Z,5.47
2018-08-03T17:27:01.848Z,5.60
2018-08-03T17:29:30.270Z,5.53
2018-08-03T17:31:58.832Z,5.80
2018-08-03T17:34:28.161Z,5.30
2018-08-03T17:36:56.652Z,5.07
2018-08-03T17:39:25.308Z,4.80
2018-08-03T17:41:53.659Z,5.10
2018-08-03T17:44:22.036Z,5.30
2018-08-03T17:46:50.151Z,4.80
2018-08-03T17:49:18.656Z,5.60
2018-08-03T17:51:47.176Z,5.40
2018-08-03T17:54:15.556Z,5.40
2018-08-03T17:56:43.929Z,5.70
2018-08-03T17:59:12.346Z,5.73
2018-08-03T18:01:40.766Z,5.10
2018-08-03T18:04:09.144Z,5.80
2018-08-03T18:06:37.500Z,5.40
2018-08-03T18:09:07.115Z,5.30
2018-08-03T18:11:35.593Z,5.40
2018-08-03T18:14:04.345Z,5.60
2018-08-03T18:16:33.350Z,5.10
2018-08-03T18:19:02.837Z,5.50
2018-08-03T18:21:31.740Z,5.30
2018-08-03T18:24:00.144Z,5.00
2018-08-03T18:26:29.574Z,4.90
2018-08-03T18:28:58.345Z,5.40
2018-08-03T18:31:27.644Z,5.47
2018-08-03T18:33:57.112Z,5.00
2018-08-03T18:36:25.533Z,5.97
2018-08-03T18:38:53.926Z,6.30
2018-08-03T18:41:22.539Z,6.40
2018-08-03T18:43:51.075Z,6.43
2018-08-03T18:46:20.060Z,6.20
2018-08-03T18:48:48.515Z,6.63
2018-08-03T18:51:17.952Z,6.07
2018-08-03T18:53:46.518Z,6.53
2018-08-03T18:56:18.029Z,6.23
2018-08-03T18:58:46.624Z,5.90
2018-08-03T19:01:15.054Z,8.60
2018-08-03T19:03:43.499Z,7.50
2018-08-03T19:06:12.123Z,6.50
2018-08-03T19:08:40.909Z,5.70
2018-08-03T19:11:09.902Z,5.80
2018-08-03T19:13:38.341Z,5.90
2018-08-03T19:16:06.853Z,5.73
2018-08-03T19:18:35.324Z,6.17
2018-08-03T19:21:03.788Z,5.77
2018-08-03T19:23:32.261Z,4.90
2018-08-03T19:26:00.750Z,5.77
2018-08-03T19:28:29.220Z,6.00
2018-08-03T19:30:57.926Z,6.23
2018-08-03T19:33:26.388Z,8.30
2018-08-03T19:35:54.780Z,6.00
2018-08-03T19:38:23.220Z,5.60
2018-08-03T19:40:52.254Z,5.90
2018-08-03T19:43:20.664Z,6.23
2018-08-03T19:45:49.101Z,6.90
2018-08-03T19:48:17.545Z,6.30
2018-08-03T19:50:46.000Z,11.80
2018-08-03T19:53:14.376Z,7.57
2018-08-03T19:55:42.491Z,8.27
2018-08-03T19:58:10.895Z,7.10
2018-08-03T20:00:39.405Z,6.00
2018-08-03T20:03:07.864Z,6.37
2018-08-03T20:05:36.280Z,5.53
2018-08-03T20:08:04.740Z,5.33
2018-08-03T20:10:33.448Z,7.13
2018-08-03T20:13:02.028Z,7.53
2018-08-03T20:15:30.484Z,7.53
2018-08-03T20:17:58.939Z,6.20
2018-08-03T20:20:27.369Z,6.50
2018-08-03T20:22:55.844Z,5.63
2018-08-03T20:25:24.358Z,5.57
2018-08-03T20:27:52.847Z,5.33
2018-08-03T20:30:21.281Z,4.90
2018-08-03T20:32:49.748Z,4.97
2018-08-03T20:35:18.381Z,4.87
2018-08-03T20:37:46.899Z,5.53
2018-08-03T20:40:15.328Z,4.80
2018-08-03T20:42:43.781Z,4.87
2018-08-03T20:45:12.153Z,5.30
2018-08-03T20:47:40.573Z,5.10
2018-08-03T20:50:08.976Z,5.40
2018-08-03T20:52:37.452Z,5.10
2018-08-03T20:55:05.868Z,6.03
2018-08-03T20:57:34.382Z,4.63
2018-08-03T21:00:03.381Z,5.80
2018-08-03T21:02:31.865Z,5.83
2018-08-03T21:05:00.461Z,5.43
2018-08-03T21:07:28.920Z,5.23
2018-08-03T21:09:57.404Z,6.27
2018-08-03T21:12:25.915Z,5.43
2018-08-03T21:14:54.384Z,5.90
2018-08-03T21:17:22.813Z,5.73
2018-08-03T21:19:51.297Z,6.40
2018-08-03T21:22:19.765Z,6.80
2018-08-03T21:24:52.608Z,5.70
2018-08-03T21:27:21.107Z,5.10
2018-08-03T21:29:49.496Z,5.67
2018-08-03T21:32:17.957Z,5.00
2018-08-03T21:34:46.355Z,5.87
2018-08-03T21:37:14.856Z,5.37
2018-08-03T21:39:43.727Z,5.20
2018-08-03T21:42:12.169Z,5.37
2018-08-03T21:44:40.561Z,5.00
2018-08-03T21:47:08.997Z,4.90
2018-08-03T21:49:37.458Z,5.60
2018-08-03T21:52:06.326Z,5.10
2018-08-03T21:54:34.839Z,5.37
2018-08-03T21:57:03.439Z,5.80
2018-08-03T21:59:31.933Z,4.40
2018-08-03T22:02:00.475Z,4.77
2018-08-03T22:04:29.128Z,5.60
2018-08-03T22:06:57.680Z,4.97
2018-08-03T22:09:26.089Z,5.10
2018-08-03T22:11:54.681Z,4.90
2018-08-03T22:14:23.061Z,4.20
2018-08-03T22:16:51.460Z,5.07
2018-08-03T22:19:19.848Z,5.60
2018-08-03T22:21:48.372Z,5.13
2018-08-03T22:24:16.481Z,5.33
2018-08-03T22:26:44.956Z,5.40
2018-08-03T22:29:13.403Z,5.00
2018-08-03T22:31:41.788Z,5.03
2018-08-03T22:34:10.185Z,5.30
2018-08-03T22:36:38.716Z,5.17
2018-08-03T22:39:08.525Z,4.60
2018-08-03T22:41:36.923Z,5.30
2018-08-03T22:44:05.575Z,4.97
2018-08-03T22:46:34.072Z,4.60
2018-08-03T22:49:02.708Z,5.37
2018-08-03T22:51:31.174Z,4.50
2018-08-03T22:54:00.129Z,4.97
2018-08-03T22:56:28.565Z,4.30
2018-08-03T22:58:57.001Z,5.00
2018-08-03T23:01:25.416Z,4.80
2018-08-03T23:03:53.880Z,5.07
2018-08-03T23:06:22.428Z,4.57
2018-08-03T23:08:50.831Z,5.33
2018-08-03T23:11:19.331Z,4.67
2018-08-03T23:13:48.456Z,4.83
2018-08-03T23:16:16.869Z,5.23
2018-08-03T23:18:45.314Z,5.57
2018-08-03T23:21:13.648Z,5.10
2018-08-03T23:23:42.065Z,4.90
2018-08-03T23:26:10.139Z,5.30
2018-08-03T23:28:38.585Z,5.83
2018-08-03T23:31:07.236Z,5.63
2018-08-03T23:33:35.584Z,5.67
2018-08-03T23:36:04.002Z,5.80
2018-08-03T23:38:32.456Z,5.67
2018-08-03T23:41:01.011Z,5.60
2018-08-03T23:43:29.188Z,5.37
2018-08-03T23:45:57.275Z,5.80
2018-08-03T23:48:25.847Z,5.07
2018-08-03T23:50:54.324Z,5.00
2018-08-03T23:53:22.796Z,6.13
2018-08-03T23:55:51.186Z,5.87
2018-08-03T23:58:19.566Z,5.60
